sensor_id;sensor_type;location;lat;lon;timestamp;P1;durP1;ratioP1;P2;durP2;ratioP2
31730;SDS011;18310;55.586;12.286;2023-08-24T00:00:55;4.32;;;1.20;;
31730;SDS011;18310;55.586;12.286;2023-08-24T00:04:00;1.80;;;0.97;;
31730;SDS011;18310;55.586;12.286;2023-08-24T00:07:03;2.10;;;0.80;;
31730;SDS011;18310;55.586;12.286;2023-08-24T00:10:06;2.65;;;1.00;;
31730;SDS011;18310;55.586;12.286;2023-08-24T00:13:09;3.92;;;1.02;;
31730;SDS011;18310;55.586;12.286;2023-08-24T00:16:12;2.60;;;1.08;;
31730;SDS011;18310;55.586;12.286;2023-08-24T00:19:17;2.35;;;1.00;;
31730;SDS011;18310;55.586;12.286;2023-08-24T00:22:20;4.43;;;1.27;;
31730;SDS011;18310;55.586;12.286;2023-08-24T00:25:23;3.35;;;1.20;;
31730;SDS011;18310;55.586;12.286;2023-08-24T00:28:27;3.30;;;0.90;;
31730;SDS011;18310;55.586;12.286;2023-08-24T00:31:30;3.17;;;1.45;;
31730;SDS011;18310;55.586;12.286;2023-08-24T00:37:38;6.43;;;1.03;;
31730;SDS011;18310;55.586;12.286;2023-08-24T00:40:41;3.33;;;1.20;;
31730;SDS011;18310;55.586;12.286;2023-08-24T00:43:45;5.55;;;1.10;;
31730;SDS011;18310;55.586;12.286;2023-08-24T00:46:50;5.47;;;1.38;;
31730;SDS011;18310;55.586;12.286;2023-08-24T00:49:54;4.82;;;1.38;;
31730;SDS011;18310;55.586;12.286;2023-08-24T00:52:57;3.75;;;1.20;;
31730;SDS011;18310;55.586;12.286;2023-08-24T00:56:00;2.85;;;1.30;;
31730;SDS011;18310;55.586;12.286;2023-08-24T00:59:03;4.18;;;1.23;;
31730;SDS011;18310;55.586;12.286;2023-08-24T01:02:06;4.20;;;1.33;;
31730;SDS011;18310;55.586;12.286;2023-08-24T01:05:11;4.40;;;1.10;;
31730;SDS011;18310;55.586;12.286;2023-08-24T01:08:14;3.95;;;1.45;;
31730;SDS011;18310;55.586;12.286;2023-08-24T01:11:19;4.40;;;1.20;;
31730;SDS011;18310;55.586;12.286;2023-08-24T01:14:33;2.28;;;1.15;;
31730;SDS011;18310;55.586;12.286;2023-08-24T01:17:43;4.03;;;1.20;;
31730;SDS011;18310;55.586;12.286;2023-08-24T01:20:48;3.80;;;1.38;;
31730;SDS011;18310;55.586;12.286;2023-08-24T01:23:53;3.97;;;1.20;;
31730;SDS011;18310;55.586;12.286;2023-08-24T01:27:06;3.42;;;1.30;;
31730;SDS011;18310;55.586;12.286;2023-08-24T01:30:11;3.78;;;1.20;;
31730;SDS011;18310;55.586;12.286;2023-08-24T01:33:15;3.63;;;1.40;;
31730;SDS011;18310;55.586;12.286;2023-08-24T01:36:18;2.67;;;1.10;;
31730;SDS011;18310;55.586;12.286;2023-08-24T01:39:24;3.13;;;1.30;;
31730;SDS011;18310;55.586;12.286;2023-08-24T01:42:33;3.97;;;1.58;;
31730;SDS011;18310;55.586;12.286;2023-08-24T01:45:41;5.82;;;1.42;;
31730;SDS011;18310;55.586;12.286;2023-08-24T01:48:48;3.20;;;1.02;;
31730;SDS011;18310;55.586;12.286;2023-08-24T01:51:54;3.38;;;1.10;;
31730;SDS011;18310;55.586;12.286;2023-08-24T01:54:57;7.57;;;1.40;;
31730;SDS011;18310;55.586;12.286;2023-08-24T01:58:02;4.45;;;1.27;;
31730;SDS011;18310;55.586;12.286;2023-08-24T02:01:05;3.72;;;1.13;;
31730;SDS011;18310;55.586;12.286;2023-08-24T02:04:09;6.00;;;1.45;;
31730;SDS011;18310;55.586;12.286;2023-08-24T02:07:13;3.25;;;1.23;;
31730;SDS011;18310;55.586;12.286;2023-08-24T02:10:16;3.90;;;1.23;;
31730;SDS011;18310;55.586;12.286;2023-08-24T02:13:20;5.15;;;1.40;;
31730;SDS011;18310;55.586;12.286;2023-08-24T02:16:24;5.85;;;1.25;;
31730;SDS011;18310;55.586;12.286;2023-08-24T02:19:27;3.87;;;1.17;;
31730;SDS011;18310;55.586;12.286;2023-08-24T02:22:30;3.33;;;1.37;;
31730;SDS011;18310;55.586;12.286;2023-08-24T02:25:33;5.20;;;1.33;;
31730;SDS011;18310;55.586;12.286;2023-08-24T02:28:38;3.72;;;1.20;;
31730;SDS011;18310;55.586;12.286;2023-08-24T02:31:41;2.63;;;1.17;;
31730;SDS011;18310;55.586;12.286;2023-08-24T02:35:08;7.50;;;1.42;;
31730;SDS011;18310;55.586;12.286;2023-08-24T02:38:11;4.72;;;1.70;;
31730;SDS011;18310;55.586;12.286;2023-08-24T02:41:14;4.55;;;1.52;;
31730;SDS011;18310;55.586;12.286;2023-08-24T02:44:18;6.47;;;1.73;;
31730;SDS011;18310;55.586;12.286;2023-08-24T02:47:21;5.82;;;1.52;;
31730;SDS011;18310;55.586;12.286;2023-08-24T02:50:25;4.57;;;1.90;;
31730;SDS011;18310;55.586;12.286;2023-08-24T02:53:28;4.03;;;1.52;;
31730;SDS011;18310;55.586;12.286;2023-08-24T02:56:32;3.70;;;1.60;;
31730;SDS011;18310;55.586;12.286;2023-08-24T02:59:35;5.03;;;1.75;;
31730;SDS011;18310;55.586;12.286;2023-08-24T03:02:38;4.27;;;1.60;;
31730;SDS011;18310;55.586;12.286;2023-08-24T03:05:42;2.05;;;1.10;;
31730;SDS011;18310;55.586;12.286;2023-08-24T03:08:55;6.00;;;1.50;;
31730;SDS011;18310;55.586;12.286;2023-08-24T03:11:58;3.63;;;1.40;;
31730;SDS011;18310;55.586;12.286;2023-08-24T03:15:01;6.63;;;1.45;;
31730;SDS011;18310;55.586;12.286;2023-08-24T03:18:05;7.78;;;1.48;;
31730;SDS011;18310;55.586;12.286;2023-08-24T03:21:10;7.63;;;1.77;;
31730;SDS011;18310;55.586;12.286;2023-08-24T03:24:13;3.47;;;1.30;;
31730;SDS011;18310;55.586;12.286;2023-08-24T03:27:16;5.95;;;1.67;;
31730;SDS011;18310;55.586;12.286;2023-08-24T03:30:20;3.85;;;1.52;;
31730;SDS011;18310;55.586;12.286;2023-08-24T03:33:24;7.82;;;1.45;;
31730;SDS011;18310;55.586;12.286;2023-08-24T03:36:29;4.10;;;1.48;;
31730;SDS011;18310;55.586;12.286;2023-08-24T03:39:32;4.00;;;1.52;;
31730;SDS011;18310;55.586;12.286;2023-08-24T03:42:36;3.67;;;1.33;;
31730;SDS011;18310;55.586;12.286;2023-08-24T03:45:39;3.47;;;1.40;;
31730;SDS011;18310;55.586;12.286;2023-08-24T03:48:42;4.10;;;1.43;;
31730;SDS011;18310;55.586;12.286;2023-08-24T03:51:47;3.70;;;1.70;;
31730;SDS011;18310;55.586;12.286;2023-08-24T03:54:50;3.58;;;1.42;;
31730;SDS011;18310;55.586;12.286;2023-08-24T03:57:53;4.30;;;1.30;;
31730;SDS011;18310;55.586;12.286;2023-08-24T04:00:56;7.93;;;1.83;;
31730;SDS011;18310;55.586;12.286;2023-08-24T04:03:59;5.07;;;1.45;;
31730;SDS011;18310;55.586;12.286;2023-08-24T04:07:04;2.20;;;1.17;;
31730;SDS011;18310;55.586;12.286;2023-08-24T04:10:07;4.68;;;1.50;;
31730;SDS011;18310;55.586;12.286;2023-08-24T04:16:14;7.18;;;1.60;;
31730;SDS011;18310;55.586;12.286;2023-08-24T04:19:17;6.80;;;1.90;;
31730;SDS011;18310;55.586;12.286;2023-08-24T04:22:22;7.95;;;1.85;;
31730;SDS011;18310;55.586;12.286;2023-08-24T04:25:25;7.38;;;1.90;;
31730;SDS011;18310;55.586;12.286;2023-08-24T04:28:28;7.50;;;2.13;;
31730;SDS011;18310;55.586;12.286;2023-08-24T04:31:31;7.20;;;1.88;;
31730;SDS011;18310;55.586;12.286;2023-08-24T04:34:34;5.72;;;1.50;;
31730;SDS011;18310;55.586;12.286;2023-08-24T04:37:39;4.22;;;1.88;;
31730;SDS011;18310;55.586;12.286;2023-08-24T04:40:46;2.33;;;1.42;;
31730;SDS011;18310;55.586;12.286;2023-08-24T04:43:51;4.80;;;1.80;;
31730;SDS011;18310;55.586;12.286;2023-08-24T04:46:54;3.80;;;1.70;;
31730;SDS011;18310;55.586;12.286;2023-08-24T04:49:58;6.80;;;1.80;;
31730;SDS011;18310;55.586;12.286;2023-08-24T04:53:02;8.27;;;2.03;;
31730;SDS011;18310;55.586;12.286;2023-08-24T04:56:05;13.10;;;2.00;;
31730;SDS011;18310;55.586;12.286;2023-08-24T04:59:09;5.97;;;1.83;;
31730;SDS011;18310;55.586;12.286;2023-08-24T05:02:12;9.03;;;2.17;;
31730;SDS011;18310;55.586;12.286;2023-08-24T05:05:15;3.88;;;2.00;;
31730;SDS011;18310;55.586;12.286;2023-08-24T05:08:20;7.45;;;2.47;;
31730;SDS011;18310;55.586;12.286;2023-08-24T05:11:24;4.60;;;1.77;;
31730;SDS011;18310;55.586;12.286;2023-08-24T05:14:31;4.80;;;2.53;;
31730;SDS011;18310;55.586;12.286;2023-08-24T05:17:34;5.55;;;2.13;;
31730;SDS011;18310;55.586;12.286;2023-08-24T05:20:38;5.75;;;2.38;;
31730;SDS011;18310;55.586;12.286;2023-08-24T05:23:42;17.00;;;2.17;;
31730;SDS011;18310;55.586;12.286;2023-08-24T05:26:45;4.90;;;2.05;;
31730;SDS011;18310;55.586;12.286;2023-08-24T05:29:48;4.55;;;1.75;;
31730;SDS011;18310;55.586;12.286;2023-08-24T05:32:51;4.00;;;1.40;;
31730;SDS011;18310;55.586;12.286;2023-08-24T05:35:54;4.80;;;1.73;;
31730;SDS011;18310;55.586;12.286;2023-08-24T05:38:59;6.90;;;1.80;;
31730;SDS011;18310;55.586;12.286;2023-08-24T05:42:07;9.10;;;1.75;;
31730;SDS011;18310;55.586;12.286;2023-08-24T05:45:11;4.32;;;2.00;;
31730;SDS011;18310;55.586;12.286;2023-08-24T05:48:14;6.35;;;1.85;;
31730;SDS011;18310;55.586;12.286;2023-08-24T05:51:41;5.05;;;2.10;;
31730;SDS011;18310;55.586;12.286;2023-08-24T05:54:44;5.10;;;1.70;;
31730;SDS011;18310;55.586;12.286;2023-08-24T05:57:47;4.00;;;1.30;;
31730;SDS011;18310;55.586;12.286;2023-08-24T06:00:55;6.07;;;1.48;;
31730;SDS011;18310;55.586;12.286;2023-08-24T06:03:59;5.03;;;1.40;;
31730;SDS011;18310;55.586;12.286;2023-08-24T06:07:03;4.67;;;1.57;;
31730;SDS011;18310;55.586;12.286;2023-08-24T06:10:07;4.32;;;1.45;;
31730;SDS011;18310;55.586;12.286;2023-08-24T06:13:11;5.20;;;1.58;;
31730;SDS011;18310;55.586;12.286;2023-08-24T06:16:14;6.88;;;1.55;;
31730;SDS011;18310;55.586;12.286;2023-08-24T06:19:18;4.30;;;1.53;;
31730;SDS011;18310;55.586;12.286;2023-08-24T06:22:22;4.35;;;0.90;;
31730;SDS011;18310;55.586;12.286;2023-08-24T06:25:26;4.13;;;1.15;;
31730;SDS011;18310;55.586;12.286;2023-08-24T06:28:29;2.50;;;0.90;;
31730;SDS011;18310;55.586;12.286;2023-08-24T06:31:32;5.37;;;1.30;;
31730;SDS011;18310;55.586;12.286;2023-08-24T06:34:35;4.67;;;1.90;;
31730;SDS011;18310;55.586;12.286;2023-08-24T06:37:40;4.60;;;1.10;;
31730;SDS011;18310;55.586;12.286;2023-08-24T06:40:43;5.63;;;1.10;;
31730;SDS011;18310;55.586;12.286;2023-08-24T06:43:46;2.90;;;0.80;;
31730;SDS011;18310;55.586;12.286;2023-08-24T06:46:49;6.37;;;1.20;;
31730;SDS011;18310;55.586;12.286;2023-08-24T06:49:52;4.43;;;1.03;;
31730;SDS011;18310;55.586;12.286;2023-08-24T06:52:57;3.40;;;0.93;;
31730;SDS011;18310;55.586;12.286;2023-08-24T06:56:00;3.50;;;1.20;;
31730;SDS011;18310;55.586;12.286;2023-08-24T06:59:03;4.13;;;0.90;;
31730;SDS011;18310;55.586;12.286;2023-08-24T07:02:07;6.72;;;1.13;;
31730;SDS011;18310;55.586;12.286;2023-08-24T07:05:10;5.33;;;1.10;;
31730;SDS011;18310;55.586;12.286;2023-08-24T07:08:15;4.18;;;1.05;;
31730;SDS011;18310;55.586;12.286;2023-08-24T07:11:18;4.40;;;1.15;;
31730;SDS011;18310;55.586;12.286;2023-08-24T07:14:22;5.22;;;1.00;;
31730;SDS011;18310;55.586;12.286;2023-08-24T07:17:25;7.65;;;1.13;;
31730;SDS011;18310;55.586;12.286;2023-08-24T07:20:28;7.90;;;1.15;;
31730;SDS011;18310;55.586;12.286;2023-08-24T07:23:33;2.70;;;0.77;;
31730;SDS011;18310;55.586;12.286;2023-08-24T07:26:36;5.18;;;1.20;;
31730;SDS011;18310;55.586;12.286;2023-08-24T07:29:39;2.43;;;0.70;;
31730;SDS011;18310;55.586;12.286;2023-08-24T07:32:42;6.38;;;1.23;;
31730;SDS011;18310;55.586;12.286;2023-08-24T07:35:45;4.63;;;0.83;;
31730;SDS011;18310;55.586;12.286;2023-08-24T07:38:50;3.08;;;1.13;;
31730;SDS011;18310;55.586;12.286;2023-08-24T07:41:54;5.03;;;0.80;;
31730;SDS011;18310;55.586;12.286;2023-08-24T07:44:57;5.33;;;0.70;;
31730;SDS011;18310;55.586;12.286;2023-08-24T07:48:00;2.70;;;0.70;;
31730;SDS011;18310;55.586;12.286;2023-08-24T07:51:03;4.68;;;1.15;;
31730;SDS011;18310;55.586;12.286;2023-08-24T07:54:08;3.30;;;0.82;;
31730;SDS011;18310;55.586;12.286;2023-08-24T07:57:11;3.17;;;0.85;;
31730;SDS011;18310;55.586;12.286;2023-08-24T08:00:14;2.07;;;0.67;;
31730;SDS011;18310;55.586;12.286;2023-08-24T08:03:18;3.20;;;0.90;;
31730;SDS011;18310;55.586;12.286;2023-08-24T08:06:22;5.25;;;0.70;;
31730;SDS011;18310;55.586;12.286;2023-08-24T08:09:29;2.30;;;0.60;;
31730;SDS011;18310;55.586;12.286;2023-08-24T08:12:32;5.53;;;0.60;;
31730;SDS011;18310;55.586;12.286;2023-08-24T08:15:35;2.47;;;0.70;;
31730;SDS011;18310;55.586;12.286;2023-08-24T08:18:40;2.80;;;0.70;;
31730;SDS011;18310;55.586;12.286;2023-08-24T08:21:43;4.80;;;0.80;;
31730;SDS011;18310;55.586;12.286;2023-08-24T08:24:48;3.13;;;0.90;;
31730;SDS011;18310;55.586;12.286;2023-08-24T08:27:51;2.00;;;0.68;;
31730;SDS011;18310;55.586;12.286;2023-08-24T08:30:54;5.43;;;0.80;;
31730;SDS011;18310;55.586;12.286;2023-08-24T08:33:57;5.00;;;0.90;;
31730;SDS011;18310;55.586;12.286;2023-08-24T08:37:00;8.33;;;0.83;;
31730;SDS011;18310;55.586;12.286;2023-08-24T08:40:08;2.63;;;0.75;;
31730;SDS011;18310;55.586;12.286;2023-08-24T08:43:13;2.65;;;0.57;;
31730;SDS011;18310;55.586;12.286;2023-08-24T08:46:37;0.88;;;0.40;;
31730;SDS011;18310;55.586;12.286;2023-08-24T08:49:41;1.92;;;0.50;;
31730;SDS011;18310;55.586;12.286;2023-08-24T08:52:46;1.75;;;0.60;;
31730;SDS011;18310;55.586;12.286;2023-08-24T08:55:50;2.28;;;0.70;;
31730;SDS011;18310;55.586;12.286;2023-08-24T08:58:54;2.42;;;0.70;;
31730;SDS011;18310;55.586;12.286;2023-08-24T09:02:01;3.22;;;0.47;;
31730;SDS011;18310;55.586;12.286;2023-08-24T09:05:05;1.80;;;0.55;;
31730;SDS011;18310;55.586;12.286;2023-08-24T09:08:09;1.23;;;0.60;;
31730;SDS011;18310;55.586;12.286;2023-08-24T09:11:12;1.60;;;0.57;;
31730;SDS011;18310;55.586;12.286;2023-08-24T09:14:15;5.35;;;0.50;;
31730;SDS011;18310;55.586;12.286;2023-08-24T09:17:21;3.38;;;0.70;;
31730;SDS011;18310;55.586;12.286;2023-08-24T09:20:27;3.03;;;0.80;;
31730;SDS011;18310;55.586;12.286;2023-08-24T09:23:30;2.45;;;0.60;;
31730;SDS011;18310;55.586;12.286;2023-08-24T09:26:35;3.93;;;0.67;;
31730;SDS011;18310;55.586;12.286;2023-08-24T09:29:46;2.83;;;0.80;;
31730;SDS011;18310;55.586;12.286;2023-08-24T09:32:52;2.05;;;0.50;;
31730;SDS011;18310;55.586;12.286;2023-08-24T09:35:55;2.90;;;1.17;;
31730;SDS011;18310;55.586;12.286;2023-08-24T09:39:03;1.75;;;0.70;;
31730;SDS011;18310;55.586;12.286;2023-08-24T09:42:07;3.63;;;0.77;;
31730;SDS011;18310;55.586;12.286;2023-08-24T09:45:11;3.67;;;0.90;;
31730;SDS011;18310;55.586;12.286;2023-08-24T09:48:17;4.03;;;0.88;;
31730;SDS011;18310;55.586;12.286;2023-08-24T09:51:21;3.53;;;0.70;;
31730;SDS011;18310;55.586;12.286;2023-08-24T09:57:29;3.22;;;0.70;;
31730;SDS011;18310;55.586;12.286;2023-08-24T10:00:33;1.23;;;0.50;;
31730;SDS011;18310;55.586;12.286;2023-08-24T10:03:38;2.67;;;0.80;;
31730;SDS011;18310;55.586;12.286;2023-08-24T10:06:43;4.30;;;0.75;;
31730;SDS011;18310;55.586;12.286;2023-08-24T10:09:51;2.70;;;0.70;;
31730;SDS011;18310;55.586;12.286;2023-08-24T10:13:00;4.65;;;0.65;;
31730;SDS011;18310;55.586;12.286;2023-08-24T10:16:11;4.15;;;0.75;;
31730;SDS011;18310;55.586;12.286;2023-08-24T10:19:17;2.90;;;0.75;;
31730;SDS011;18310;55.586;12.286;2023-08-24T10:22:22;2.00;;;0.70;;
31730;SDS011;18310;55.586;12.286;2023-08-24T10:25:26;1.67;;;0.70;;
31730;SDS011;18310;55.586;12.286;2023-08-24T10:28:29;3.35;;;0.90;;
31730;SDS011;18310;55.586;12.286;2023-08-24T10:31:33;7.53;;;1.08;;
31730;SDS011;18310;55.586;12.286;2023-08-24T10:34:39;2.70;;;0.88;;
31730;SDS011;18310;55.586;12.286;2023-08-24T10:37:43;2.05;;;0.63;;
31730;SDS011;18310;55.586;12.286;2023-08-24T10:40:49;3.67;;;1.05;;
31730;SDS011;18310;55.586;12.286;2023-08-24T10:44:03;3.72;;;0.30;;
31730;SDS011;18310;55.586;12.286;2023-08-24T10:47:09;4.07;;;0.90;;
31730;SDS011;18310;55.586;12.286;2023-08-24T10:50:16;4.70;;;0.75;;
31730;SDS011;18310;55.586;12.286;2023-08-24T10:56:42;3.17;;;0.60;;
31730;SDS011;18310;55.586;12.286;2023-08-24T10:59:59;2.67;;;0.63;;
31730;SDS011;18310;55.586;12.286;2023-08-24T11:03:07;4.07;;;0.80;;
31730;SDS011;18310;55.586;12.286;2023-08-24T11:06:19;1.40;;;0.60;;
31730;SDS011;18310;55.586;12.286;2023-08-24T11:09:23;2.75;;;0.80;;
31730;SDS011;18310;55.586;12.286;2023-08-24T11:12:28;3.38;;;0.65;;
31730;SDS011;18310;55.586;12.286;2023-08-24T11:16:07;4.60;;;0.63;;
31730;SDS011;18310;55.586;12.286;2023-08-24T11:19:46;3.85;;;0.70;;
31730;SDS011;18310;55.586;12.286;2023-08-24T11:22:54;1.65;;;0.60;;
31730;SDS011;18310;55.586;12.286;2023-08-24T11:25:59;1.88;;;0.47;;
31730;SDS011;18310;55.586;12.286;2023-08-24T11:29:04;2.33;;;0.73;;
31730;SDS011;18310;55.586;12.286;2023-08-24T11:32:08;1.40;;;0.60;;
31730;SDS011;18310;55.586;12.286;2023-08-24T11:35:11;4.32;;;0.70;;
31730;SDS011;18310;55.586;12.286;2023-08-24T11:38:15;2.03;;;0.80;;
31730;SDS011;18310;55.586;12.286;2023-08-24T11:41:19;1.30;;;0.60;;
31730;SDS011;18310;55.586;12.286;2023-08-24T11:44:23;4.80;;;0.55;;
31730;SDS011;18310;55.586;12.286;2023-08-24T11:47:47;3.55;;;0.60;;
31730;SDS011;18310;55.586;12.286;2023-08-24T11:50:51;2.15;;;0.55;;
31730;SDS011;18310;55.586;12.286;2023-08-24T11:53:56;2.60;;;0.63;;
31730;SDS011;18310;55.586;12.286;2023-08-24T11:57:00;1.95;;;0.50;;
31730;SDS011;18310;55.586;12.286;2023-08-24T12:00:03;3.70;;;1.03;;
31730;SDS011;18310;55.586;12.286;2023-08-24T12:03:09;3.53;;;1.10;;
31730;SDS011;18310;55.586;12.286;2023-08-24T12:06:13;2.10;;;0.68;;
31730;SDS011;18310;55.586;12.286;2023-08-24T12:09:17;2.95;;;0.65;;
31730;SDS011;18310;55.586;12.286;2023-08-24T12:12:21;2.65;;;0.85;;
31730;SDS011;18310;55.586;12.286;2023-08-24T12:15:27;1.80;;;0.40;;
31730;SDS011;18310;55.586;12.286;2023-08-24T12:18:35;2.17;;;0.65;;
31730;SDS011;18310;55.586;12.286;2023-08-24T12:22:00;2.08;;;0.57;;
31730;SDS011;18310;55.586;12.286;2023-08-24T12:25:03;2.08;;;0.52;;
31730;SDS011;18310;55.586;12.286;2023-08-24T12:28:08;5.28;;;0.80;;
31730;SDS011;18310;55.586;12.286;2023-08-24T12:31:12;2.00;;;0.60;;
31730;SDS011;18310;55.586;12.286;2023-08-24T12:34:17;1.42;;;0.60;;
31730;SDS011;18310;55.586;12.286;2023-08-24T12:37:22;2.30;;;0.60;;
31730;SDS011;18310;55.586;12.286;2023-08-24T12:40:25;3.28;;;0.68;;
31730;SDS011;18310;55.586;12.286;2023-08-24T12:43:28;2.90;;;0.70;;
31730;SDS011;18310;55.586;12.286;2023-08-24T12:46:32;1.83;;;0.60;;
31730;SDS011;18310;55.586;12.286;2023-08-24T12:49:35;4.93;;;0.70;;
31730;SDS011;18310;55.586;12.286;2023-08-24T12:52:40;3.25;;;0.68;;
31730;SDS011;18310;55.586;12.286;2023-08-24T12:55:43;2.70;;;0.85;;
31730;SDS011;18310;55.586;12.286;2023-08-24T12:58:47;4.45;;;0.57;;
31730;SDS011;18310;55.586;12.286;2023-08-24T13:01:52;1.77;;;0.50;;
31730;SDS011;18310;55.586;12.286;2023-08-24T13:04:55;2.50;;;0.77;;
31730;SDS011;18310;55.586;12.286;2023-08-24T13:08:04;3.35;;;0.70;;
31730;SDS011;18310;55.586;12.286;2023-08-24T13:11:08;2.05;;;0.63;;
31730;SDS011;18310;55.586;12.286;2023-08-24T13:14:11;4.40;;;1.17;;
31730;SDS011;18310;55.586;12.286;2023-08-24T13:17:14;3.80;;;0.90;;
31730;SDS011;18310;55.586;12.286;2023-08-24T13:20:40;1.63;;;0.60;;
31730;SDS011;18310;55.586;12.286;2023-08-24T13:23:43;4.63;;;0.90;;
31730;SDS011;18310;55.586;12.286;2023-08-24T13:26:47;1.38;;;0.55;;
31730;SDS011;18310;55.586;12.286;2023-08-24T13:29:50;3.47;;;0.55;;
31730;SDS011;18310;55.586;12.286;2023-08-24T13:32:53;5.43;;;0.80;;
31730;SDS011;18310;55.586;12.286;2023-08-24T13:35:58;2.47;;;0.88;;
31730;SDS011;18310;55.586;12.286;2023-08-24T13:39:03;1.67;;;0.60;;
31730;SDS011;18310;55.586;12.286;2023-08-24T13:42:06;3.43;;;0.80;;
31730;SDS011;18310;55.586;12.286;2023-08-24T13:45:09;2.10;;;0.70;;
31730;SDS011;18310;55.586;12.286;2023-08-24T13:48:13;2.37;;;0.60;;
31730;SDS011;18310;55.586;12.286;2023-08-24T13:51:17;4.33;;;1.10;;
31730;SDS011;18310;55.586;12.286;2023-08-24T13:54:20;2.78;;;0.60;;
31730;SDS011;18310;55.586;12.286;2023-08-24T13:57:24;4.53;;;0.90;;
31730;SDS011;18310;55.586;12.286;2023-08-24T14:00:27;2.10;;;0.80;;
31730;SDS011;18310;55.586;12.286;2023-08-24T14:03:31;4.68;;;1.10;;
31730;SDS011;18310;55.586;12.286;2023-08-24T14:06:35;4.95;;;0.77;;
31730;SDS011;18310;55.586;12.286;2023-08-24T14:09:39;2.92;;;0.98;;
31730;SDS011;18310;55.586;12.286;2023-08-24T14:13:00;3.20;;;0.80;;
31730;SDS011;18310;55.586;12.286;2023-08-24T14:16:03;1.63;;;0.60;;
31730;SDS011;18310;55.586;12.286;2023-08-24T14:19:07;2.17;;;0.82;;
31730;SDS011;18310;55.586;12.286;2023-08-24T14:22:11;7.27;;;1.40;;
31730;SDS011;18310;55.586;12.286;2023-08-24T14:25:14;2.03;;;0.85;;
31730;SDS011;18310;55.586;12.286;2023-08-24T14:28:19;1.90;;;0.75;;
31730;SDS011;18310;55.586;12.286;2023-08-24T14:31:24;2.85;;;0.70;;
31730;SDS011;18310;55.586;12.286;2023-08-24T14:34:28;2.55;;;0.80;;
31730;SDS011;18310;55.586;12.286;2023-08-24T14:37:32;5.78;;;1.13;;
31730;SDS011;18310;55.586;12.286;2023-08-24T14:40:36;3.47;;;0.93;;
31730;SDS011;18310;55.586;12.286;2023-08-24T14:43:39;1.93;;;0.50;;
31730;SDS011;18310;55.586;12.286;2023-08-24T14:46:42;4.20;;;0.80;;
31730;SDS011;18310;55.586;12.286;2023-08-24T14:49:46;2.08;;;0.98;;
31730;SDS011;18310;55.586;12.286;2023-08-24T14:52:51;3.45;;;0.85;;
31730;SDS011;18310;55.586;12.286;2023-08-24T14:55:54;3.03;;;1.02;;
31730;SDS011;18310;55.586;12.286;2023-08-24T15:02:01;2.42;;;1.00;;
31730;SDS011;18310;55.586;12.286;2023-08-24T15:05:05;7.82;;;1.05;;
31730;SDS011;18310;55.586;12.286;2023-08-24T15:08:10;4.57;;;0.80;;
31730;SDS011;18310;55.586;12.286;2023-08-24T15:11:14;2.17;;;0.70;;
31730;SDS011;18310;55.586;12.286;2023-08-24T15:14:18;4.70;;;0.75;;
31730;SDS011;18310;55.586;12.286;2023-08-24T15:17:21;2.60;;;0.95;;
31730;SDS011;18310;55.586;12.286;2023-08-24T15:20:24;2.87;;;0.90;;
31730;SDS011;18310;55.586;12.286;2023-08-24T15:23:29;1.83;;;0.70;;
31730;SDS011;18310;55.586;12.286;2023-08-24T15:26:33;1.90;;;0.70;;
31730;SDS011;18310;55.586;12.286;2023-08-24T15:29:36;2.15;;;0.82;;
31730;SDS011;18310;55.586;12.286;2023-08-24T15:32:39;5.88;;;0.68;;
31730;SDS011;18310;55.586;12.286;2023-08-24T15:35:42;2.93;;;0.83;;
31730;SDS011;18310;55.586;12.286;2023-08-24T15:38:46;4.40;;;0.80;;
31730;SDS011;18310;55.586;12.286;2023-08-24T15:41:50;1.70;;;0.52;;
31730;SDS011;18310;55.586;12.286;2023-08-24T15:44:53;4.23;;;0.90;;
31730;SDS011;18310;55.586;12.286;2023-08-24T15:47:56;3.13;;;0.97;;
31730;SDS011;18310;55.586;12.286;2023-08-24T15:51:00;2.35;;;0.65;;
31730;SDS011;18310;55.586;12.286;2023-08-24T15:54:04;5.37;;;0.60;;
31730;SDS011;18310;55.586;12.286;2023-08-24T15:57:08;3.00;;;0.80;;
31730;SDS011;18310;55.586;12.286;2023-08-24T16:00:12;1.58;;;0.60;;
31730;SDS011;18310;55.586;12.286;2023-08-24T16:03:16;3.10;;;0.68;;
31730;SDS011;18310;55.586;12.286;2023-08-24T16:06:19;2.80;;;0.60;;
31730;SDS011;18310;55.586;12.286;2023-08-24T16:09:24;3.03;;;0.80;;
31730;SDS011;18310;55.586;12.286;2023-08-24T16:12:27;5.70;;;0.90;;
31730;SDS011;18310;55.586;12.286;2023-08-24T16:17:00;2.25;;;0.63;;
31730;SDS011;18310;55.586;12.286;2023-08-24T16:20:03;2.65;;;0.70;;
31730;SDS011;18310;55.586;12.286;2023-08-24T16:23:11;3.20;;;0.85;;
31730;SDS011;18310;55.586;12.286;2023-08-24T16:26:15;9.75;;;1.40;;
31730;SDS011;18310;55.586;12.286;2023-08-24T16:29:18;2.47;;;0.63;;
31730;SDS011;18310;55.586;12.286;2023-08-24T16:32:23;1.80;;;0.70;;
31730;SDS011;18310;55.586;12.286;2023-08-24T16:35:26;3.85;;;1.00;;
31730;SDS011;18310;55.586;12.286;2023-08-24T16:38:29;2.92;;;0.75;;
31730;SDS011;18310;55.586;12.286;2023-08-24T16:41:32;4.50;;;1.20;;
31730;SDS011;18310;55.586;12.286;2023-08-24T16:44:36;3.65;;;0.80;;
31730;SDS011;18310;55.586;12.286;2023-08-24T16:47:40;1.77;;;0.60;;
31730;SDS011;18310;55.586;12.286;2023-08-24T16:50:49;1.23;;;0.50;;
31730;SDS011;18310;55.586;12.286;2023-08-24T16:53:53;2.05;;;0.65;;
31730;SDS011;18310;55.586;12.286;2023-08-24T16:56:56;2.25;;;0.85;;
31730;SDS011;18310;55.586;12.286;2023-08-24T16:59:59;3.83;;;0.90;;
31730;SDS011;18310;55.586;12.286;2023-08-24T17:03:04;2.47;;;0.73;;
31730;SDS011;18310;55.586;12.286;2023-08-24T17:06:07;3.95;;;0.98;;
31730;SDS011;18310;55.586;12.286;2023-08-24T17:09:10;1.60;;;0.52;;
31730;SDS011;18310;55.586;12.286;2023-08-24T17:12:13;5.25;;;0.90;;
31730;SDS011;18310;55.586;12.286;2023-08-24T17:15:16;4.45;;;1.05;;
31730;SDS011;18310;55.586;12.286;2023-08-24T17:18:21;6.13;;;0.80;;
31730;SDS011;18310;55.586;12.286;2023-08-24T17:21:24;3.10;;;0.90;;
31730;SDS011;18310;55.586;12.286;2023-08-24T17:24:27;3.03;;;1.00;;
31730;SDS011;18310;55.586;12.286;2023-08-24T17:27:30;3.17;;;1.00;;
31730;SDS011;18310;55.586;12.286;2023-08-24T17:30:33;2.90;;;1.15;;
31730;SDS011;18310;55.586;12.286;2023-08-24T17:33:38;2.83;;;1.03;;
31730;SDS011;18310;55.586;12.286;2023-08-24T17:36:41;3.30;;;0.90;;
31730;SDS011;18310;55.586;12.286;2023-08-24T17:39:44;8.10;;;1.10;;
31730;SDS011;18310;55.586;12.286;2023-08-24T17:42:47;5.15;;;1.08;;
31730;SDS011;18310;55.586;12.286;2023-08-24T17:45:50;3.30;;;0.85;;
31730;SDS011;18310;55.586;12.286;2023-08-24T17:48:55;2.77;;;0.70;;
31730;SDS011;18310;55.586;12.286;2023-08-24T17:51:58;6.43;;;0.98;;
31730;SDS011;18310;55.586;12.286;2023-08-24T17:55:01;2.75;;;0.70;;
31730;SDS011;18310;55.586;12.286;2023-08-24T17:58:06;3.60;;;0.60;;
31730;SDS011;18310;55.586;12.286;2023-08-24T18:01:09;4.55;;;0.95;;
31730;SDS011;18310;55.586;12.286;2023-08-24T18:04:13;4.55;;;1.17;;
31730;SDS011;18310;55.586;12.286;2023-08-24T18:07:16;1.85;;;0.73;;
31730;SDS011;18310;55.586;12.286;2023-08-24T18:10:19;4.18;;;1.20;;
31730;SDS011;18310;55.586;12.286;2023-08-24T18:13:22;3.63;;;1.10;;
31730;SDS011;18310;55.586;12.286;2023-08-24T18:16:26;3.47;;;0.80;;
31730;SDS011;18310;55.586;12.286;2023-08-24T18:19:31;3.97;;;1.02;;
31730;SDS011;18310;55.586;12.286;2023-08-24T18:22:34;4.38;;;0.90;;
31730;SDS011;18310;55.586;12.286;2023-08-24T18:25:37;6.97;;;0.93;;
31730;SDS011;18310;55.586;12.286;2023-08-24T18:28:41;3.20;;;0.90;;
31730;SDS011;18310;55.586;12.286;2023-08-24T18:31:44;4.32;;;1.27;;